createdAt,value
2018-11-07T00:00:08.625Z,18.73
2018-11-07T00:00:21.115Z,18.73
2018-11-07T00:00:33.530Z,18.73
2018-11-07T00:00:45.933Z,18.73
2018-11-07T00:00:58.494Z,18.73
2018-11-07T00:01:10.928Z,18.73
2018-11-07T00:01:23.318Z,18.73
2018-11-07T00:01:35.734Z,18.73
2018-11-07T00:01:48.136Z,18.73
2018-11-07T00:02:00.739Z,18.73
2018-11-07T00:02:13.187Z,18.73
2018-11-07T00:02:25.598Z,18.73
2018-11-07T00:02:38.061Z,18.73
2018-11-07T00:02:51.070Z,18.73
2018-11-07T00:03:04.982Z,18.73
2018-11-07T00:03:17.385Z,18.73
2018-11-07T00:03:29.800Z,18.73
2018-11-07T00:03:42.221Z,18.73
2018-11-07T00:03:54.610Z,18.73
2018-11-07T00:04:07.038Z,18.73
2018-11-07T00:04:19.493Z,18.73
2018-11-07T00:04:31.906Z,18.73
2018-11-07T00:04:44.421Z,18.73
2018-11-07T00:04:56.881Z,18.73
2018-11-07T00:05:09.291Z,18.73
2018-11-07T00:05:21.691Z,18.73
2018-11-07T00:05:34.111Z,18.73
2018-11-07T00:05:46.509Z,18.73
2018-11-07T00:05:58.934Z,18.73
2018-11-07T00:06:11.367Z,18.73
2018-11-07T00:06:23.922Z,18.73
2018-11-07T00:06:36.307Z,18.73
2018-11-07T00:06:48.693Z,18.73
2018-11-07T00:07:01.125Z,18.73
2018-11-07T00:07:13.688Z,18.73
2018-11-07T00:07:26.112Z,18.73
2018-11-07T00:07:38.510Z,18.73
2018-11-07T00:07:51.502Z,18.73
2018-11-07T00:08:05.545Z,18.73
2018-11-07T00:08:21.020Z,18.73
2018-11-07T00:08:34.992Z,16.48
2018-11-07T00:08:47.590Z,16.48
2018-11-07T00:09:00.012Z,16.48
2018-11-07T00:09:12.434Z,16.48
2018-11-07T00:09:24.864Z,16.48
2018-11-07T00:09:37.276Z,16.48
2018-11-07T00:09:49.691Z,16.48
2018-11-07T00:10:02.124Z,16.48
2018-11-07T00:10:14.542Z,16.48
2018-11-07T00:10:26.963Z,16.48
2018-11-07T00:10:39.366Z,16.48
2018-11-07T00:10:51.764Z,16.48
2018-11-07T00:11:04.197Z,16.48
2018-11-07T00:11:16.601Z,16.48
2018-11-07T00:11:29.027Z,16.48
2018-11-07T00:11:41.436Z,16.48
2018-11-07T00:11:53.825Z,16.48
2018-11-07T00:12:06.218Z,16.48
2018-11-07T00:12:18.648Z,16.48
2018-11-07T00:12:31.058Z,16.48
2018-11-07T00:12:43.455Z,16.48
2018-11-07T00:12:55.866Z,16.48
2018-11-07T00:13:08.279Z,16.48
2018-11-07T00:13:20.712Z,16.48
2018-11-07T00:13:33.109Z,16.48
2018-11-07T00:13:45.552Z,16.48
2018-11-07T00:13:58.191Z,16.48
2018-11-07T00:14:11.053Z,16.48
2018-11-07T00:14:23.479Z,16.48
2018-11-07T00:14:35.910Z,16.48
2018-11-07T00:14:48.314Z,16.48
2018-11-07T00:15:00.751Z,16.48
2018-11-07T00:15:13.178Z,16.48
2018-11-07T00:15:25.594Z,16.48
2018-11-07T00:15:38.051Z,16.48
2018-11-07T00:15:50.451Z,16.48
2018-11-07T00:16:02.851Z,16.48
2018-11-07T00:16:15.265Z,16.48
2018-11-07T00:16:27.729Z,16.48
2018-11-07T00:16:40.165Z,16.48
2018-11-07T00:16:52.550Z,16.48
2018-11-07T00:17:04.931Z,16.48
2018-11-07T00:17:17.331Z,16.48
2018-11-07T00:17:29.745Z,16.48
2018-11-07T00:17:42.155Z,16.48
2018-11-07T00:17:54.542Z,16.48
2018-11-07T00:18:06.926Z,16.48
2018-11-07T00:18:19.316Z,16.48
2018-11-07T00:18:31.731Z,18.05
2018-11-07T00:18:44.156Z,18.05
2018-11-07T00:18:56.550Z,18.05
2018-11-07T00:19:08.955Z,18.05
2018-11-07T00:19:21.452Z,18.05
2018-11-07T00:19:34.473Z,18.05
2018-11-07T00:19:47.010Z,18.05
2018-11-07T00:19:59.477Z,18.05
2018-11-07T00:20:12.181Z,18.05
2018-11-07T00:20:24.874Z,18.05
2018-11-07T00:20:37.333Z,18.05
2018-11-07T00:20:49.825Z,18.05
2018-11-07T00:21:02.275Z,18.05
2018-11-07T00:21:14.674Z,18.05
2018-11-07T00:21:27.064Z,18.05
2018-11-07T00:21:39.480Z,18.05
2018-11-07T00:21:51.871Z,18.05
2018-11-07T00:22:04.293Z,18.05
2018-11-07T00:22:16.803Z,18.05
2018-11-07T00:22:29.185Z,18.05
2018-11-07T00:22:41.613Z,18.05
2018-11-07T00:22:54.001Z,18.05
2018-11-07T00:23:06.400Z,18.05
2018-11-07T00:23:18.827Z,18.05
2018-11-07T00:23:31.273Z,18.05
2018-11-07T00:23:43.689Z,18.05
2018-11-07T00:23:56.077Z,18.05
2018-11-07T00:24:08.649Z,18.05
2018-11-07T00:24:21.058Z,18.05
2018-11-07T00:24:33.471Z,18.05
2018-11-07T00:24:46.094Z,18.05
2018-11-07T00:24:58.520Z,18.05
2018-11-07T00:25:11.025Z,18.05
2018-11-07T00:25:23.428Z,18.05
2018-11-07T00:25:35.834Z,18.05
2018-11-07T00:25:48.295Z,18.05
2018-11-07T00:26:00.697Z,18.05
2018-11-07T00:26:13.428Z,18.05
2018-11-07T00:26:26.939Z,18.05
2018-11-07T00:26:40.068Z,18.05
2018-11-07T00:26:52.510Z,18.05
2018-11-07T00:27:04.919Z,18.05
2018-11-07T00:27:17.309Z,18.05
2018-11-07T00:27:29.700Z,18.05
2018-11-07T00:27:42.098Z,18.05
2018-11-07T00:27:54.491Z,18.05
2018-11-07T00:28:07.171Z,18.05
2018-11-07T00:28:19.579Z,18.05
2018-11-07T00:28:32.032Z,18.71
2018-11-07T00:28:44.437Z,18.71
2018-11-07T00:28:57.108Z,18.71
2018-11-07T00:29:09.517Z,18.71
2018-11-07T00:29:21.941Z,18.71
2018-11-07T00:29:34.339Z,18.71
2018-11-07T00:29:46.741Z,18.71
2018-11-07T00:29:59.419Z,18.71
2018-11-07T00:30:13.079Z,18.71
2018-11-07T00:30:26.592Z,18.71
2018-11-07T00:30:39.038Z,18.71
2018-11-07T00:30:51.448Z,18.71
2018-11-07T00:31:03.907Z,18.71
2018-11-07T00:31:16.331Z,18.71
2018-11-07T00:31:28.741Z,18.71
2018-11-07T00:31:41.126Z,18.71
2018-11-07T00:31:53.513Z,18.71
2018-11-07T00:32:05.980Z,18.71
2018-11-07T00:32:18.389Z,18.71
2018-11-07T00:32:30.875Z,18.71
2018-11-07T00:32:43.277Z,18.71
2018-11-07T00:32:55.760Z,18.71
2018-11-07T00:33:08.220Z,18.71
2018-11-07T00:33:20.621Z,18.71
2018-11-07T00:33:33.034Z,18.71
2018-11-07T00:33:45.431Z,18.71
2018-11-07T00:33:57.837Z,18.71
2018-11-07T00:34:10.278Z,18.71
2018-11-07T00:34:22.739Z,18.71
2018-11-07T00:34:35.147Z,18.71
2018-11-07T00:34:47.544Z,18.71
2018-11-07T00:35:00.564Z,18.71
2018-11-07T00:35:14.380Z,18.71
2018-11-07T00:35:27.347Z,18.71
2018-11-07T00:35:39.747Z,18.71
2018-11-07T00:35:52.132Z,18.71
2018-11-07T00:36:04.691Z,18.71
2018-11-07T00:36:17.095Z,18.71
2018-11-07T00:36:29.497Z,18.71
2018-11-07T00:36:41.881Z,18.71
2018-11-07T00:36:54.754Z,18.71
2018-11-07T00:37:07.202Z,18.71
2018-11-07T00:37:19.610Z,18.71
2018-11-07T00:37:32.022Z,18.71
2018-11-07T00:37:44.439Z,18.71
2018-11-07T00:37:57.180Z,18.71
2018-11-07T00:38:09.609Z,18.71
2018-11-07T00:38:22.009Z,18.71
2018-11-07T00:38:34.411Z,19
2018-11-07T00:38:46.822Z,19
2018-11-07T00:38:59.242Z,19
2018-11-07T00:39:11.673Z,19
2018-11-07T00:39:24.063Z,19
2018-11-07T00:39:36.472Z,19
2018-11-07T00:39:48.891Z,19
2018-11-07T00:40:01.292Z,19
2018-11-07T00:40:13.737Z,19
2018-11-07T00:40:26.222Z,19
2018-11-07T00:40:38.630Z,19
2018-11-07T00:40:51.053Z,19
2018-11-07T00:41:03.458Z,19
2018-11-07T00:41:15.854Z,19
2018-11-07T00:41:28.253Z,19
2018-11-07T00:41:40.654Z,19
2018-11-07T00:41:53.049Z,19
2018-11-07T00:42:05.452Z,19
2018-11-07T00:42:18.656Z,19
2018-11-07T00:42:32.402Z,19
2018-11-07T00:42:44.794Z,19
2018-11-07T00:42:57.222Z,19
2018-11-07T00:43:09.946Z,19
2018-11-07T00:43:22.494Z,19
2018-11-07T00:43:34.920Z,19
2018-11-07T00:43:47.313Z,19
2018-11-07T00:43:59.716Z,19
2018-11-07T00:44:12.113Z,19
2018-11-07T00:44:24.534Z,19
2018-11-07T00:44:36.942Z,19
2018-11-07T00:44:49.336Z,19
2018-11-07T00:45:01.753Z,19
2018-11-07T00:45:14.184Z,19
2018-11-07T00:45:26.600Z,19
2018-11-07T00:45:39.011Z,19
2018-11-07T00:45:51.404Z,19
2018-11-07T00:46:03.817Z,19
2018-11-07T00:46:16.245Z,19
2018-11-07T00:46:28.633Z,19
2018-11-07T00:46:41.091Z,19
2018-11-07T00:46:53.523Z,19
2018-11-07T00:47:05.922Z,19
2018-11-07T00:47:18.322Z,19
2018-11-07T00:47:30.864Z,19
2018-11-07T00:47:43.251Z,19
2018-11-07T00:47:55.672Z,19
2018-11-07T00:48:08.092Z,19
2018-11-07T00:48:20.475Z,19
2018-11-07T00:48:32.877Z,17.68
2018-11-07T00:48:45.276Z,17.68
2018-11-07T00:48:57.698Z,17.68
2018-11-07T00:49:10.151Z,17.68
2018-11-07T00:49:22.561Z,17.68
2018-11-07T00:49:34.963Z,17.68
2018-11-07T00:49:47.528Z,17.68
2018-11-07T00:49:59.928Z,17.68
2018-11-07T00:50:12.334Z,17.68
2018-11-07T00:50:24.805Z,17.68
2018-11-07T00:50:37.220Z,17.68
2018-11-07T00:50:49.617Z,17.68
2018-11-07T00:51:02.013Z,17.68
2018-11-07T00:51:14.409Z,17.68
2018-11-07T00:51:26.803Z,17.68
2018-11-07T00:51:39.220Z,17.68
2018-11-07T00:51:51.637Z,17.68
2018-11-07T00:52:04.064Z,17.68
2018-11-07T00:52:16.481Z,17.68
2018-11-07T00:52:28.875Z,17.68
2018-11-07T00:52:41.293Z,17.68
2018-11-07T00:52:53.695Z,17.68
2018-11-07T00:53:06.087Z,17.68
2018-11-07T00:53:18.485Z,17.68
2018-11-07T00:53:30.921Z,17.68
2018-11-07T00:53:43.333Z,17.68
2018-11-07T00:53:55.765Z,17.68
2018-11-07T00:54:08.182Z,17.68
2018-11-07T00:54:20.576Z,17.68
2018-11-07T00:54:33.098Z,17.68
2018-11-07T00:54:45.544Z,17.68
2018-11-07T00:54:57.954Z,17.68
2018-11-07T00:55:10.397Z,17.68
2018-11-07T00:55:22.814Z,17.68
2018-11-07T00:55:35.274Z,17.68
2018-11-07T00:55:47.679Z,17.68
2018-11-07T00:56:00.079Z,17.68
2018-11-07T00:56:12.476Z,17.68
2018-11-07T00:56:24.883Z,17.68
2018-11-07T00:56:37.295Z,17.68
2018-11-07T00:56:49.685Z,17.68
2018-11-07T00:57:02.089Z,17.68
2018-11-07T00:57:14.523Z,17.68
2018-11-07T00:57:26.925Z,17.68
2018-11-07T00:57:39.327Z,17.68
2018-11-07T00:57:51.948Z,17.68
2018-11-07T00:58:05.204Z,17.68
2018-11-07T00:58:19.003Z,17.68
2018-11-07T00:58:31.400Z,18.23
2018-11-07T00:58:43.820Z,18.23
2018-11-07T00:58:56.240Z,18.23
2018-11-07T00:59:08.636Z,18.23
2018-11-07T00:59:21.040Z,18.23
2018-11-07T00:59:33.456Z,18.23
2018-11-07T00:59:45.846Z,18.23
2018-11-07T00:59:58.337Z,18.23
2018-11-07T01:00:10.744Z,18.23
2018-11-07T01:00:23.155Z,18.23
2018-11-07T01:00:35.588Z,18.23
2018-11-07T01:00:48.005Z,18.23
2018-11-07T01:01:00.435Z,18.23
2018-11-07T01:01:12.827Z,18.23
2018-11-07T01:01:25.228Z,18.23
2018-11-07T01:01:37.637Z,18.23
2018-11-07T01:01:50.176Z,18.23
2018-11-07T01:02:02.581Z,18.23
2018-11-07T01:02:15.029Z,18.23
2018-11-07T01:02:27.438Z,18.23
2018-11-07T01:02:39.842Z,18.23
2018-11-07T01:02:52.249Z,18.23
2018-11-07T01:03:04.649Z,18.23
2018-11-07T01:03:17.057Z,18.23
2018-11-07T01:03:29.471Z,18.23
2018-11-07T01:03:41.893Z,18.23
2018-11-07T01:03:54.278Z,18.23
2018-11-07T01:04:06.662Z,18.23
2018-11-07T01:04:19.101Z,18.23
2018-11-07T01:04:31.488Z,18.23
2018-11-07T01:04:44.034Z,18.23
2018-11-07T01:04:56.438Z,18.23
2018-11-07T01:05:08.856Z,18.23
2018-11-07T01:05:21.260Z,18.23
2018-11-07T01:05:33.717Z,18.23
2018-11-07T01:05:46.143Z,18.23
2018-11-07T01:05:58.583Z,18.23
2018-11-07T01:06:10.984Z,18.23
2018-11-07T01:06:23.407Z,18.23
2018-11-07T01:06:36.701Z,18.23
2018-11-07T01:06:49.099Z,18.23
2018-11-07T01:07:01.500Z,18.23
2018-11-07T01:07:14.023Z,18.23
2018-11-07T01:07:26.465Z,18.23
2018-11-07T01:07:38.863Z,18.23
2018-11-07T01:07:51.336Z,18.23
2018-11-07T01:08:03.759Z,18.23
2018-11-07T01:08:16.158Z,18.23
2018-11-07T01:08:28.573Z,18.95
2018-11-07T01:08:41.313Z,18.95
2018-11-07T01:08:54.566Z,18.95
2018-11-07T01:09:06.976Z,18.95
2018-11-07T01:09:19.573Z,18.95
2018-11-07T01:09:32.827Z,18.95
2018-11-07T01:09:47.011Z,18.95
2018-11-07T01:09:59.435Z,18.95
2018-11-07T01:10:11.841Z,18.95
2018-11-07T01:10:24.253Z,18.95
2018-11-07T01:10:38.141Z,18.95
2018-11-07T01:10:50.812Z,18.95
2018-11-07T01:11:03.222Z,18.95
2018-11-07T01:11:15.613Z,18.95
2018-11-07T01:11:28.090Z,18.95
2018-11-07T01:11:40.488Z,18.95
2018-11-07T01:11:52.938Z,18.95
2018-11-07T01:12:05.394Z,18.95
2018-11-07T01:12:17.852Z,18.95
2018-11-07T01:12:30.250Z,18.95
2018-11-07T01:12:42.662Z,18.95
2018-11-07T01:12:55.096Z,18.95
2018-11-07T01:13:07.654Z,18.95
2018-11-07T01:13:20.053Z,18.95
2018-11-07T01:13:32.458Z,18.95
2018-11-07T01:13:44.866Z,18.95
2018-11-07T01:13:57.258Z,18.95
2018-11-07T01:14:09.714Z,18.95
2018-11-07T01:14:22.118Z,18.95
2018-11-07T01:14:34.512Z,18.95
2018-11-07T01:14:46.906Z,18.95
2018-11-07T01:14:59.299Z,18.95
2018-11-07T01:15:11.722Z,18.95
2018-11-07T01:15:24.131Z,18.95
2018-11-07T01:15:36.529Z,18.95
2018-11-07T01:15:48.914Z,18.95
2018-11-07T01:16:01.303Z,18.95
2018-11-07T01:16:13.708Z,18.95
2018-11-07T01:16:26.154Z,18.95
2018-11-07T01:16:39.172Z,18.95
2018-11-07T01:16:53.048Z,18.95
2018-11-07T01:17:05.474Z,18.95
2018-11-07T01:17:17.914Z,18.95
2018-11-07T01:17:30.309Z,18.95
2018-11-07T01:17:42.735Z,18.95
2018-11-07T01:17:55.153Z,18.95
2018-11-07T01:18:07.542Z,18.95
2018-11-07T01:18:19.925Z,18.95
2018-11-07T01:18:32.316Z,19.66
2018-11-07T01:18:44.705Z,19.66
2018-11-07T01:18:57.093Z,19.66
2018-11-07T01:19:09.500Z,19.66
2018-11-07T01:19:21.922Z,19.66
2018-11-07T01:19:34.314Z,19.66
2018-11-07T01:19:46.697Z,19.66
2018-11-07T01:19:59.091Z,19.66
2018-11-07T01:20:11.629Z,19.66
2018-11-07T01:20:24.165Z,19.66
2018-11-07T01:20:36.554Z,19.66
2018-11-07T01:20:49.031Z,19.66
2018-11-07T01:21:01.581Z,19.66
2018-11-07T01:21:13.987Z,19.66
2018-11-07T01:21:26.387Z,19.66
2018-11-07T01:21:38.783Z,19.66
2018-11-07T01:21:51.182Z,19.66
2018-11-07T01:22:03.570Z,19.66
2018-11-07T01:22:16.521Z,19.66
2018-11-07T01:22:29.801Z,19.66
2018-11-07T01:22:42.203Z,19.66
2018-11-07T01:22:54.634Z,19.66
2018-11-07T01:23:07.088Z,19.66
2018-11-07T01:23:19.617Z,19.66
2018-11-07T01:23:32.006Z,19.66
2018-11-07T01:23:44.419Z,19.66
2018-11-07T01:23:56.817Z,19.66
2018-11-07T01:24:09.368Z,19.66
2018-11-07T01:24:21.754Z,19.66
2018-11-07T01:24:34.165Z,19.66
2018-11-07T01:24:46.743Z,19.66
2018-11-07T01:24:59.141Z,19.66
2018-11-07T01:25:11.725Z,19.66
2018-11-07T01:25:24.155Z,19.66
2018-11-07T01:25:36.555Z,19.66
2018-11-07T01:25:48.956Z,19.66
2018-11-07T01:26:01.356Z,19.66
2018-11-07T01:26:13.748Z,19.66
2018-11-07T01:26:26.155Z,19.66
2018-11-07T01:26:38.551Z,19.66
2018-11-07T01:26:50.952Z,19.66
2018-11-07T01:27:03.436Z,19.66
2018-11-07T01:27:15.827Z,19.66
2018-11-07T01:27:28.232Z,19.66
2018-11-07T01:27:40.678Z,19.66
2018-11-07T01:27:53.139Z,19.66
2018-11-07T01:28:05.996Z,19.66
2018-11-07T01:28:19.591Z,19.66
2018-11-07T01:28:32.893Z,19.12
2018-11-07T01:28:45.278Z,19.12
2018-11-07T01:28:58.145Z,19.12
2018-11-07T01:29:10.579Z,19.12
2018-11-07T01:29:22.985Z,19.12
2018-11-07T01:29:35.385Z,19.12
2018-11-07T01:29:47.797Z,19.12
2018-11-07T01:30:00.206Z,19.12
2018-11-07T01:30:12.657Z,19.12
2018-11-07T01:30:25.071Z,19.12
2018-11-07T01:30:37.484Z,19.12
2018-11-07T01:30:49.870Z,19.12
2018-11-07T01:31:02.276Z,19.12
2018-11-07T01:31:14.687Z,19.12
2018-11-07T01:31:27.102Z,19.12
2018-11-07T01:31:39.497Z,19.12
2018-11-07T01:31:51.909Z,19.12
2018-11-07T01:32:04.555Z,19.12
2018-11-07T01:32:16.969Z,19.12
2018-11-07T01:32:29.433Z,19.12
2018-11-07T01:32:41.842Z,19.12
2018-11-07T01:32:54.260Z,19.12
2018-11-07T01:33:06.796Z,19.12
2018-11-07T01:33:19.197Z,19.12
2018-11-07T01:33:31.672Z,19.12
2018-11-07T01:33:44.086Z,19.12
2018-11-07T01:33:56.481Z,19.12
2018-11-07T01:34:08.887Z,19.12
2018-11-07T01:34:21.443Z,19.12
2018-11-07T01:34:33.861Z,19.12
2018-11-07T01:34:46.245Z,19.12
2018-11-07T01:34:58.653Z,19.12
2018-11-07T01:35:11.056Z,19.12
2018-11-07T01:35:23.479Z,19.12
2018-11-07T01:35:35.860Z,19.12
2018-11-07T01:35:48.275Z,19.12
2018-11-07T01:36:00.718Z,19.12
2018-11-07T01:36:13.245Z,19.12
2018-11-07T01:36:25.637Z,19.12
2018-11-07T01:36:38.023Z,19.12
2018-11-07T01:36:50.437Z,19.12
2018-11-07T01:37:02.849Z,19.12
2018-11-07T01:37:15.241Z,19.12
2018-11-07T01:37:27.646Z,19.12
2018-11-07T01:37:40.121Z,19.12
2018-11-07T01:37:52.534Z,19.12
2018-11-07T01:38:04.944Z,19.12
2018-11-07T01:38:17.359Z,19.12
2018-11-07T01:38:29.752Z,19.15
2018-11-07T01:38:42.145Z,19.15
2018-11-07T01:38:54.530Z,19.15
2018-11-07T01:39:06.928Z,19.15
2018-11-07T01:39:19.339Z,19.15
2018-11-07T01:39:31.754Z,19.15
2018-11-07T01:39:44.193Z,19.15
2018-11-07T01:39:56.597Z,19.15
2018-11-07T01:40:09.007Z,19.15
2018-11-07T01:40:21.415Z,19.15
2018-11-07T01:40:33.822Z,19.15
2018-11-07T01:40:46.234Z,19.15
2018-11-07T01:40:58.770Z,19.15
2018-11-07T01:41:11.171Z,19.15
2018-11-07T01:41:23.581Z,19.15
2018-11-07T01:41:35.983Z,19.15
2018-11-07T01:41:48.566Z,19.15
2018-11-07T01:42:02.053Z,19.15
2018-11-07T01:42:15.683Z,19.15
2018-11-07T01:42:28.118Z,19.15
2018-11-07T01:42:40.544Z,19.15
2018-11-07T01:42:52.953Z,19.15
2018-11-07T01:43:05.373Z,19.15
2018-11-07T01:43:18.043Z,19.15
2018-11-07T01:43:30.455Z,19.15
2018-11-07T01:43:42.855Z,19.15
2018-11-07T01:43:55.275Z,19.15
2018-11-07T01:44:07.739Z,19.15
2018-11-07T01:44:20.137Z,19.15
2018-11-07T01:44:32.555Z,19.15
2018-11-07T01:44:44.964Z,19.15
2018-11-07T01:44:57.363Z,19.15
2018-11-07T01:45:09.762Z,19.15
2018-11-07T01:45:22.168Z,19.15
2018-11-07T01:45:34.555Z,19.15
2018-11-07T01:45:46.944Z,19.15
2018-11-07T01:45:59.343Z,19.15
2018-11-07T01:46:11.733Z,19.15
2018-11-07T01:46:24.226Z,19.15
2018-11-07T01:46:36.634Z,19.15
2018-11-07T01:46:49.067Z,19.15
2018-11-07T01:47:01.487Z,19.15
2018-11-07T01:47:13.882Z,19.15
2018-11-07T01:47:26.370Z,19.15
2018-11-07T01:47:38.769Z,19.15
2018-11-07T01:47:51.165Z,19.15
2018-11-07T01:48:03.607Z,19.15
2018-11-07T01:48:16.047Z,19.15
2018-11-07T01:48:28.476Z,19.15
2018-11-07T01:48:40.889Z,18.8
2018-11-07T01:48:53.290Z,18.8
2018-11-07T01:49:05.691Z,18.8
2018-11-07T01:49:18.097Z,18.8
2018-11-07T01:49:30.522Z,18.8
2018-11-07T01:49:42.997Z,18.8
2018-11-07T01:49:55.395Z,18.8
2018-11-07T01:50:07.790Z,18.8
2018-11-07T01:50:20.205Z,18.8
2018-11-07T01:50:32.596Z,18.8
2018-11-07T01:50:45.008Z,18.8
2018-11-07T01:50:57.409Z,18.8
2018-11-07T01:51:09.841Z,18.8
2018-11-07T01:51:22.254Z,18.8
2018-11-07T01:51:34.666Z,18.8
2018-11-07T01:51:47.070Z,18.8
2018-11-07T01:51:59.462Z,18.8
2018-11-07T01:52:11.849Z,18.8
2018-11-07T01:52:24.320Z,18.8
2018-11-07T01:52:36.734Z,18.8
2018-11-07T01:52:49.148Z,18.8
2018-11-07T01:53:01.722Z,18.8
2018-11-07T01:53:14.141Z,18.8
2018-11-07T01:53:26.560Z,18.8
2018-11-07T01:53:38.933Z,18.8
2018-11-07T01:53:51.356Z,18.8
2018-11-07T01:54:03.800Z,18.8
2018-11-07T01:54:16.201Z,18.8
2018-11-07T01:54:28.581Z,18.8
2018-11-07T01:54:40.975Z,18.8
2018-11-07T01:54:53.374Z,18.8
2018-11-07T01:55:05.780Z,18.8
2018-11-07T01:55:18.223Z,18.8
2018-11-07T01:55:30.673Z,18.8
2018-11-07T01:55:43.067Z,18.8
2018-11-07T01:55:55.470Z,18.8
2018-11-07T01:56:07.880Z,18.8
2018-11-07T01:56:20.280Z,18.8
2018-11-07T01:56:32.673Z,18.8
2018-11-07T01:56:45.063Z,18.8
2018-11-07T01:56:57.451Z,18.8
2018-11-07T01:57:09.867Z,18.8
2018-11-07T01:57:22.256Z,18.8
2018-11-07T01:57:34.705Z,18.8
2018-11-07T01:57:47.095Z,18.8
2018-11-07T01:57:59.525Z,18.8
2018-11-07T01:58:11.918Z,18.8
2018-11-07T01:58:24.333Z,18.8
2018-11-07T01:58:36.752Z,17.75
2018-11-07T01:58:49.190Z,17.75
2018-11-07T01:59:01.606Z,17.75
2018-11-07T01:59:14.069Z,17.75
2018-11-07T01:59:26.481Z,17.75
2018-11-07T01:59:38.886Z,17.75
2018-11-07T01:59:51.305Z,17.75
2018-11-07T02:00:03.725Z,17.75
2018-11-07T02:00:16.175Z,17.75
2018-11-07T02:00:28.590Z,17.75
2018-11-07T02:00:41.015Z,17.75
2018-11-07T02:00:53.442Z,17.75
2018-11-07T02:01:05.861Z,17.75
2018-11-07T02:01:18.297Z,17.75
2018-11-07T02:01:30.699Z,17.75
2018-11-07T02:01:43.132Z,17.75
2018-11-07T02:01:55.708Z,17.75
2018-11-07T02:02:08.116Z,17.75
2018-11-07T02:02:20.534Z,17.75
2018-11-07T02:02:32.962Z,17.75
2018-11-07T02:02:45.397Z,17.75
2018-11-07T02:02:57.808Z,17.75
2018-11-07T02:03:10.231Z,17.75
2018-11-07T02:03:22.622Z,17.75
2018-11-07T02:03:35.026Z,17.75
2018-11-07T02:03:47.409Z,17.75
2018-11-07T02:03:59.815Z,17.75
2018-11-07T02:04:12.232Z,17.75
2018-11-07T02:04:24.641Z,17.75
2018-11-07T02:04:37.050Z,17.75
2018-11-07T02:04:49.546Z,17.75
2018-11-07T02:05:01.951Z,17.75
2018-11-07T02:05:14.384Z,17.75
2018-11-07T02:05:26.819Z,17.75
2018-11-07T02:05:39.221Z,17.75
2018-11-07T02:05:51.622Z,17.75
2018-11-07T02:06:04.023Z,17.75
2018-11-07T02:06:16.425Z,17.75
2018-11-07T02:06:28.842Z,17.75
2018-11-07T02:06:41.230Z,17.75
2018-11-07T02:06:53.764Z,17.75
2018-11-07T02:07:06.173Z,17.75
2018-11-07T02:07:18.772Z,17.75
2018-11-07T02:07:31.213Z,17.75
2018-11-07T02:07:43.600Z,17.75
2018-11-07T02:07:56.001Z,17.75
2018-11-07T02:08:08.445Z,17.75
2018-11-07T02:08:20.866Z,17.75
2018-11-07T02:08:33.290Z,17.63
2018-11-07T02:08:45.685Z,17.63
2018-11-07T02:08:58.091Z,17.63
2018-11-07T02:09:10.481Z,17.63
2018-11-07T02:09:22.941Z,17.63
2018-11-07T02:09:35.349Z,17.63
2018-11-07T02:09:47.751Z,17.63
2018-11-07T02:10:00.147Z,17.63
2018-11-07T02:10:12.582Z,17.63
2018-11-07T02:10:24.979Z,17.63
2018-11-07T02:10:37.378Z,17.63
2018-11-07T02:10:49.794Z,17.63
2018-11-07T02:11:02.249Z,17.63
2018-11-07T02:11:14.665Z,17.63
2018-11-07T02:11:27.080Z,17.63
2018-11-07T02:11:39.475Z,17.63
2018-11-07T02:11:51.861Z,17.63
2018-11-07T02:12:04.313Z,17.63
2018-11-07T02:12:16.804Z,17.63
2018-11-07T02:12:29.197Z,17.63
2018-11-07T02:12:41.594Z,17.63
2018-11-07T02:12:54.003Z,17.63
2018-11-07T02:13:06.394Z,17.63
2018-11-07T02:13:18.815Z,17.63
2018-11-07T02:13:31.229Z,17.63
2018-11-07T02:13:43.627Z,17.63
2018-11-07T02:13:56.013Z,17.63
2018-11-07T02:14:08.422Z,17.63
2018-11-07T02:14:20.829Z,17.63
2018-11-07T02:14:33.215Z,17.63
2018-11-07T02:14:45.618Z,17.63
2018-11-07T02:14:58.050Z,17.63
2018-11-07T02:15:10.476Z,17.63
2018-11-07T02:15:22.880Z,17.63
2018-11-07T02:15:35.272Z,17.63
2018-11-07T02:15:47.681Z,17.63
2018-11-07T02:16:00.076Z,17.63
2018-11-07T02:16:12.472Z,17.63
2018-11-07T02:16:24.867Z,17.63
2018-11-07T02:16:37.276Z,17.63
2018-11-07T02:16:49.691Z,17.63
2018-11-07T02:17:02.102Z,17.63
2018-11-07T02:17:14.578Z,17.63
2018-11-07T02:17:26.976Z,17.63
2018-11-07T02:17:39.412Z,17.63
2018-11-07T02:17:51.823Z,17.63
2018-11-07T02:18:04.224Z,17.63
2018-11-07T02:18:16.625Z,17.63
2018-11-07T02:18:29.043Z,17.63
2018-11-07T02:18:41.474Z,18.23
2018-11-07T02:18:53.852Z,18.23
2018-11-07T02:19:06.254Z,18.23
2018-11-07T02:19:18.657Z,18.23
2018-11-07T02:19:31.070Z,18.23
2018-11-07T02:19:43.466Z,18.23
2018-11-07T02:19:55.846Z,18.23
2018-11-07T02:20:08.269Z,18.23
2018-11-07T02:20:20.861Z,18.23
2018-11-07T02:20:33.252Z,18.23
2018-11-07T02:20:45.778Z,18.23
2018-11-07T02:20:58.187Z,18.23
2018-11-07T02:21:10.602Z,18.23
2018-11-07T02:21:22.999Z,18.23
2018-11-07T02:21:35.404Z,18.23
2018-11-07T02:21:47.817Z,18.23
2018-11-07T02:22:00.272Z,18.23
2018-11-07T02:22:12.884Z,18.23
2018-11-07T02:22:25.285Z,18.23
2018-11-07T02:22:37.686Z,18.23
2018-11-07T02:22:50.095Z,18.23
2018-11-07T02:23:02.507Z,18.23
2018-11-07T02:23:14.914Z,18.23
2018-11-07T02:23:27.345Z,18.23
2018-11-07T02:23:39.728Z,18.23
2018-11-07T02:23:52.284Z,18.23
2018-11-07T02:24:04.797Z,18.23
2018-11-07T02:24:17.189Z,18.23
2018-11-07T02:24:29.649Z,18.23
2018-11-07T02:24:42.208Z,18.23
2018-11-07T02:24:54.605Z,18.23
2018-11-07T02:25:07.107Z,18.23
2018-11-07T02:25:19.540Z,18.23
2018-11-07T02:25:31.936Z,18.23
2018-11-07T02:25:44.331Z,18.23
2018-11-07T02:25:56.741Z,18.23
2018-11-07T02:26:09.267Z,18.23
2018-11-07T02:26:22.366Z,18.23
2018-11-07T02:26:36.305Z,18.23
2018-11-07T02:26:48.716Z,18.23
2018-11-07T02:27:01.125Z,18.23
2018-11-07T02:27:13.531Z,18.23
2018-11-07T02:27:25.938Z,18.23
2018-11-07T02:27:38.348Z,18.23
2018-11-07T02:27:50.782Z,18.23
2018-11-07T02:28:03.378Z,18.23
2018-11-07T02:28:15.857Z,18.23
2018-11-07T02:28:28.718Z,18.23
2018-11-07T02:28:41.146Z,19.57
2018-11-07T02:28:53.591Z,19.57
2018-11-07T02:29:06.136Z,19.57
2018-11-07T02:29:18.560Z,19.57
2018-11-07T02:29:30.983Z,19.57
2018-11-07T02:29:43.411Z,19.57
2018-11-07T02:29:55.831Z,19.57
2018-11-07T02:30:08.333Z,19.57
2018-11-07T02:30:20.796Z,19.57
2018-11-07T02:30:33.227Z,19.57
2018-11-07T02:30:45.652Z,19.57
2018-11-07T02:30:58.053Z,19.57
2018-11-07T02:31:10.496Z,19.57
2018-11-07T02:31:22.909Z,19.57
2018-11-07T02:31:35.322Z,19.57
2018-11-07T02:31:47.750Z,19.57
2018-11-07T02:32:00.198Z,19.57
2018-11-07T02:32:12.698Z,19.57
2018-11-07T02:32:25.295Z,19.57
2018-11-07T02:32:37.701Z,19.57
2018-11-07T02:32:50.107Z,19.57
2018-11-07T02:33:02.516Z,19.57
2018-11-07T02:33:15.182Z,19.57
2018-11-07T02:33:27.610Z,19.57
2018-11-07T02:33:40.013Z,19.57
2018-11-07T02:33:52.441Z,19.57
2018-11-07T02:34:04.866Z,19.57
2018-11-07T02:34:17.356Z,19.57
2018-11-07T02:34:29.921Z,19.57
2018-11-07T02:34:42.341Z,19.57
2018-11-07T02:34:54.744Z,19.57
2018-11-07T02:35:07.168Z,19.57
2018-11-07T02:35:19.662Z,19.57
2018-11-07T02:35:32.105Z,19.57
2018-11-07T02:35:44.512Z,19.57
2018-11-07T02:35:56.976Z,19.57
2018-11-07T02:36:09.549Z,19.57
2018-11-07T02:36:21.970Z,19.57
2018-11-07T02:36:34.405Z,19.57
2018-11-07T02:36:47.166Z,19.57
2018-11-07T02:37:00.530Z,19.57
2018-11-07T02:37:14.617Z,19.57
2018-11-07T02:37:27.050Z,19.57
2018-11-07T02:37:39.503Z,19.57
2018-11-07T02:37:51.957Z,19.57
2018-11-07T02:38:04.362Z,19.57
2018-11-07T02:38:16.761Z,19.57
2018-11-07T02:38:29.269Z,19.57
2018-11-07T02:38:41.668Z,17.25
2018-11-07T02:38:54.067Z,17.25
2018-11-07T02:39:06.512Z,17.25
2018-11-07T02:39:18.918Z,17.25
2018-11-07T02:39:31.349Z,17.25
2018-11-07T02:39:43.755Z,17.25
2018-11-07T02:39:56.187Z,17.25
2018-11-07T02:40:08.665Z,17.25
2018-11-07T02:40:21.092Z,17.25
2018-11-07T02:40:33.525Z,17.25
2018-11-07T02:40:45.977Z,17.25
2018-11-07T02:40:58.419Z,17.25
2018-11-07T02:41:10.884Z,17.25
2018-11-07T02:41:23.267Z,17.25
2018-11-07T02:41:35.838Z,17.25
2018-11-07T02:41:49.361Z,17.25
2018-11-07T02:42:03.481Z,17.25